createdAt,value
2023-05-12T00:01:58.177Z,34.15
2023-05-12T00:04:25.264Z,34.15
2023-05-12T00:06:53.674Z,35.03
2023-05-12T00:09:20.601Z,34.47
2023-05-12T00:11:48.549Z,35.28
2023-05-12T00:14:16.131Z,34.55
2023-05-12T00:16:43.479Z,34.63
2023-05-12T00:19:10.656Z,34.92
2023-05-12T00:21:37.750Z,35.85
2023-05-12T00:24:05.445Z,35.22
2023-05-12T00:26:32.430Z,35.90
2023-05-12T00:28:59.763Z,36.13
2023-05-12T00:31:26.914Z,36.33
2023-05-12T00:33:53.917Z,36.20
2023-05-12T00:36:20.844Z,35.45
2023-05-12T00:38:48.992Z,36.20
2023-05-12T00:41:16.735Z,35.50
2023-05-12T00:43:45.482Z,36.15
2023-05-12T00:46:12.860Z,36.13
2023-05-12T00:48:40.638Z,35.00
2023-05-12T00:51:08.661Z,36.03
2023-05-12T00:53:48.365Z,36.70
2023-05-12T00:56:18.812Z,36.33
2023-05-12T00:58:46.776Z,36.25
2023-05-12T01:01:14.066Z,35.88
2023-05-12T01:03:41.430Z,35.90
2023-05-12T01:06:31.280Z,35.03
2023-05-12T01:08:59.222Z,34.97
2023-05-12T01:11:26.212Z,35.55
2023-05-12T01:13:53.196Z,35.53
2023-05-12T01:16:27.873Z,37.22
2023-05-12T01:18:56.449Z,36.38
2023-05-12T01:21:23.594Z,36.88
2023-05-12T01:23:58.352Z,38.70
2023-05-12T01:26:29.881Z,36.45
2023-05-12T01:28:57.441Z,36.50
2023-05-12T01:31:25.136Z,36.85
2023-05-12T01:33:52.167Z,36.65
2023-05-12T01:36:19.097Z,35.95
2023-05-12T01:38:46.139Z,36.05
2023-05-12T01:41:13.140Z,36.70
2023-05-12T01:43:40.193Z,36.88
2023-05-12T01:46:07.280Z,37.25
2023-05-12T01:48:34.313Z,36.72
2023-05-12T01:51:01.916Z,36.67
2023-05-12T01:53:28.929Z,35.97
2023-05-12T01:55:56.096Z,35.67
2023-05-12T01:58:22.990Z,35.60
2023-05-12T02:00:49.966Z,36.40
2023-05-12T02:03:17.018Z,37.83
2023-05-12T02:05:44.377Z,36.13
2023-05-12T02:08:11.402Z,38.20
2023-05-12T02:10:39.560Z,38.08
2023-05-12T02:13:06.528Z,36.10
2023-05-12T02:15:33.528Z,37.55
2023-05-12T02:18:00.571Z,37.42
2023-05-12T02:20:29.760Z,36.92
2023-05-12T02:22:57.498Z,38.90
2023-05-12T02:25:24.601Z,38.30
2023-05-12T02:27:51.965Z,38.47
2023-05-12T02:30:19.297Z,37.10
2023-05-12T02:32:46.549Z,36.97
2023-05-12T02:35:13.792Z,35.55
2023-05-12T02:37:40.707Z,36.40
2023-05-12T02:40:08.372Z,36.90
2023-05-12T02:42:36.405Z,36.83
2023-05-12T02:45:03.588Z,36.30
2023-05-12T02:47:33.441Z,35.08
2023-05-12T02:50:00.583Z,35.33
2023-05-12T02:52:27.969Z,35.15
2023-05-12T02:54:56.254Z,34.83
2023-05-12T02:57:24.375Z,34.65
2023-05-12T02:59:51.316Z,35.90
2023-05-12T03:02:18.306Z,34.10
2023-05-12T03:04:45.303Z,34.22
2023-05-12T03:07:12.257Z,33.45
2023-05-12T03:09:39.370Z,33.22
2023-05-12T03:12:07.240Z,32.22
2023-05-12T03:14:34.174Z,33.72
2023-05-12T03:17:01.206Z,32.30
2023-05-12T03:19:28.218Z,32.42
2023-05-12T03:21:55.997Z,32.75
2023-05-12T03:24:23.107Z,33.95
2023-05-12T03:26:51.221Z,32.88
2023-05-12T03:29:18.151Z,33.33
2023-05-12T03:31:45.609Z,33.10
2023-05-12T03:34:12.745Z,31.35
2023-05-12T03:36:41.460Z,32.80
2023-05-12T03:39:11.140Z,31.98
2023-05-12T03:41:39.004Z,31.83
2023-05-12T03:44:06.409Z,32.08
2023-05-12T03:46:33.543Z,32.40
2023-05-12T03:49:01.319Z,31.45
2023-05-12T03:51:28.397Z,30.63
2023-05-12T03:53:55.360Z,30.20
2023-05-12T03:56:23.029Z,31.33
2023-05-12T03:58:50.043Z,31.63
2023-05-12T04:01:17.672Z,31.17
2023-05-12T04:03:44.785Z,31.23
2023-05-12T04:06:12.324Z,31.17
2023-05-12T04:08:41.815Z,29.77
2023-05-12T04:11:10.552Z,30.88
2023-05-12T04:13:37.657Z,30.92
2023-05-12T04:16:05.713Z,32.33
2023-05-12T04:18:32.856Z,31.02
2023-05-12T04:21:01.470Z,31.50
2023-05-12T04:23:28.835Z,30.98
2023-05-12T04:25:56.552Z,30.33
2023-05-12T04:28:23.492Z,30.58
2023-05-12T04:30:50.591Z,30.33
2023-05-12T04:33:17.734Z,29.35
2023-05-12T04:35:46.839Z,29.40
2023-05-12T04:38:13.888Z,29.30
2023-05-12T04:40:41.132Z,29.05
2023-05-12T04:43:08.475Z,28.13
2023-05-12T04:45:35.491Z,28.33
2023-05-12T04:48:04.929Z,29.40
2023-05-12T04:50:31.966Z,28.58
2023-05-12T04:52:59.015Z,29.02
2023-05-12T04:55:26.052Z,28.17
2023-05-12T04:57:53.030Z,28.55
2023-05-12T05:00:20.236Z,27.42
2023-05-12T05:02:47.661Z,27.33
2023-05-12T05:05:15.028Z,27.55
2023-05-12T05:07:42.155Z,26.08
2023-05-12T05:10:09.531Z,26.60
2023-05-12T05:12:36.886Z,25.58
2023-05-12T05:15:04.853Z,25.67
2023-05-12T05:17:31.930Z,26.70
2023-05-12T05:19:59.929Z,25.38
2023-05-12T05:22:27.499Z,25.95
2023-05-12T05:24:54.785Z,25.00
2023-05-12T05:27:22.139Z,25.70
2023-05-12T05:29:49.623Z,27.25
2023-05-12T05:32:16.826Z,27.10
2023-05-12T05:34:43.829Z,28.02
2023-05-12T05:37:10.870Z,28.75
2023-05-12T05:39:38.402Z,28.65
2023-05-12T05:42:05.548Z,28.67
2023-05-12T05:44:32.583Z,29.02
2023-05-12T05:46:59.646Z,28.88
2023-05-12T05:49:26.715Z,28.25
2023-05-12T05:51:53.988Z,28.25
2023-05-12T05:54:23.603Z,28.20
2023-05-12T05:56:50.894Z,26.90
2023-05-12T05:59:17.943Z,26.50
2023-05-12T06:01:45.799Z,26.35
2023-05-12T06:04:14.126Z,25.52
2023-05-12T06:06:41.118Z,25.77
2023-05-12T06:09:10.702Z,24.58
2023-05-12T06:11:37.764Z,25.20
2023-05-12T06:14:04.792Z,25.60
2023-05-12T06:16:31.755Z,24.95
2023-05-12T06:18:58.803Z,25.25
2023-05-12T06:21:25.832Z,25.65
2023-05-12T06:23:52.889Z,26.38
2023-05-12T06:26:19.917Z,25.70
2023-05-12T06:28:46.868Z,25.98
2023-05-12T06:31:13.817Z,25.65
2023-05-12T06:33:40.857Z,24.52
2023-05-12T06:36:08.241Z,25.48
2023-05-12T06:38:35.573Z,25.48
2023-05-12T06:41:02.491Z,25.73
2023-05-12T06:43:29.752Z,27.67
2023-05-12T06:45:57.079Z,28.88
2023-05-12T06:48:24.411Z,26.63
2023-05-12T06:50:51.907Z,27.05
2023-05-12T06:53:18.907Z,29.70
2023-05-12T06:55:47.163Z,31.17
2023-05-12T06:58:14.412Z,32.40
2023-05-12T07:00:41.777Z,32.65
2023-05-12T07:03:11.258Z,33.67
2023-05-12T07:05:38.297Z,34.63
2023-05-12T07:08:06.026Z,33.50
2023-05-12T07:10:35.350Z,33.80
2023-05-12T07:13:02.377Z,33.05
2023-05-12T07:15:32.615Z,31.65
2023-05-12T07:18:00.116Z,31.75
2023-05-12T07:20:27.706Z,29.42
2023-05-12T07:22:55.242Z,28.48
2023-05-12T07:25:22.590Z,26.38
2023-05-12T07:27:51.008Z,24.95
2023-05-12T07:30:18.133Z,25.63
2023-05-12T07:32:45.289Z,25.98
2023-05-12T07:35:14.817Z,25.42
2023-05-12T07:37:41.734Z,27.20
2023-05-12T07:40:09.940Z,27.13
2023-05-12T07:42:37.023Z,28.45
2023-05-12T07:45:04.421Z,28.88
2023-05-12T07:47:31.416Z,28.95
2023-05-12T07:49:58.457Z,28.48
2023-05-12T07:52:25.494Z,29.50
2023-05-12T07:54:52.700Z,28.58
2023-05-12T07:57:20.196Z,27.42
2023-05-12T07:59:47.434Z,27.00
2023-05-12T08:02:14.497Z,26.20
2023-05-12T08:04:43.180Z,24.40
2023-05-12T08:07:11.385Z,22.30
2023-05-12T08:09:38.344Z,22.67
2023-05-12T08:12:05.714Z,23.60
2023-05-12T08:14:32.792Z,24.48
2023-05-12T08:16:59.852Z,25.17
2023-05-12T08:19:26.891Z,25.13
2023-05-12T08:21:53.960Z,24.55
2023-05-12T08:24:22.055Z,24.27
2023-05-12T08:26:49.225Z,24.05
2023-05-12T08:29:16.852Z,23.38
2023-05-12T08:31:43.972Z,22.73
2023-05-12T08:34:11.398Z,22.55
2023-05-12T08:36:39.835Z,21.77
2023-05-12T08:39:08.312Z,23.65
2023-05-12T08:42:10.859Z,23.10
2023-05-12T08:44:38.606Z,23.38
2023-05-12T08:47:07.087Z,23.08
2023-05-12T08:49:36.717Z,22.63
2023-05-12T08:52:04.369Z,22.45
2023-05-12T08:59:32.323Z,21.05
2023-05-12T09:01:59.483Z,21.35
2023-05-12T09:04:26.632Z,20.50
2023-05-12T09:06:55.777Z,20.55
2023-05-12T09:09:24.440Z,20.25
2023-05-12T09:11:56.512Z,20.63
2023-05-12T09:14:25.976Z,21.30
2023-05-12T09:16:59.694Z,21.77
2023-05-12T09:19:28.415Z,21.42
2023-05-12T09:21:56.165Z,21.98
2023-05-12T09:24:38.394Z,20.95
2023-05-12T09:27:06.146Z,21.48
2023-05-12T09:29:39.527Z,20.85
2023-05-12T09:32:12.598Z,21.33
2023-05-12T09:34:41.648Z,20.90
2023-05-12T09:37:09.014Z,21.55
2023-05-12T09:39:36.821Z,21.08
2023-05-12T09:42:04.250Z,20.58
2023-05-12T09:44:33.465Z,20.88
2023-05-12T09:47:08.144Z,21.15
2023-05-12T09:49:35.214Z,21.25
2023-05-12T09:52:05.322Z,21.55
2023-05-12T09:54:34.588Z,22.35
2023-05-12T09:57:04.114Z,22.00
2023-05-12T09:59:33.875Z,22.77
2023-05-12T10:02:03.125Z,23.15
2023-05-12T10:04:42.104Z,23.30
2023-05-12T10:07:13.228Z,23.25
2023-05-12T10:09:42.847Z,23.08
2023-05-12T10:12:10.630Z,22.67
2023-05-12T10:14:38.527Z,24.08
2023-05-12T10:17:07.287Z,23.58
2023-05-12T10:19:35.782Z,24.67
2023-05-12T10:22:04.530Z,25.20
2023-05-12T10:24:31.753Z,26.42
2023-05-12T10:26:59.957Z,26.20
2023-05-12T10:29:31.250Z,26.10
2023-05-12T10:32:01.472Z,28.33
2023-05-12T10:34:34.980Z,28.30
2023-05-12T10:37:08.847Z,27.00
2023-05-12T10:39:36.248Z,33.28
2023-05-12T10:42:09.795Z,31.45
2023-05-12T10:44:37.796Z,25.95
2023-05-12T10:47:16.338Z,25.90
2023-05-12T10:49:43.907Z,27.25
2023-05-12T10:52:19.758Z,30.13
2023-05-12T10:54:47.850Z,24.73
2023-05-12T10:57:21.490Z,25.23
2023-05-12T10:59:59.826Z,24.35
2023-05-12T11:02:34.713Z,25.42
2023-05-12T11:05:10.942Z,25.13
2023-05-12T11:07:39.626Z,24.02
2023-05-12T11:10:08.056Z,24.42
2023-05-12T11:12:36.388Z,23.77
2023-05-12T11:15:05.550Z,23.17
2023-05-12T11:17:33.146Z,24.73
2023-05-12T11:20:01.634Z,23.13
2023-05-12T11:22:28.995Z,23.50
2023-05-12T11:24:56.219Z,23.27
2023-05-12T11:27:24.253Z,23.77
2023-05-12T11:30:03.092Z,24.15
2023-05-12T11:32:30.583Z,25.50
2023-05-12T11:35:12.218Z,24.33
2023-05-12T11:37:41.056Z,25.05
2023-05-12T11:40:19.413Z,26.70
2023-05-12T11:42:53.169Z,26.13
2023-05-12T11:45:26.069Z,28.70
2023-05-12T11:47:54.285Z,29.23
2023-05-12T11:50:23.111Z,29.73
2023-05-12T11:52:51.262Z,30.27
2023-05-12T11:55:24.599Z,31.23
2023-05-12T11:58:00.334Z,31.30
2023-05-12T12:00:32.912Z,30.48
2023-05-12T12:03:11.631Z,31.65
2023-05-12T12:05:40.477Z,30.88
2023-05-12T12:08:14.277Z,31.17
2023-05-12T12:10:46.717Z,31.52
2023-05-12T12:13:19.970Z,30.92
2023-05-12T12:15:46.968Z,30.92
2023-05-12T12:18:13.980Z,29.08
2023-05-12T12:20:43.247Z,27.73
2023-05-12T12:23:10.281Z,27.45
2023-05-12T12:25:37.657Z,26.50
2023-05-12T12:28:05.252Z,26.55
2023-05-12T12:30:32.617Z,26.55
2023-05-12T12:32:59.745Z,26.52
2023-05-12T12:35:26.916Z,26.30
2023-05-12T12:37:53.970Z,26.02
2023-05-12T12:40:20.962Z,25.42
2023-05-12T12:42:48.060Z,26.08
2023-05-12T12:45:15.159Z,25.30
2023-05-12T12:47:42.690Z,25.55
2023-05-12T12:50:10.856Z,25.55
2023-05-12T12:52:39.034Z,24.45
2023-05-12T12:55:07.488Z,24.05
2023-05-12T12:57:35.012Z,24.42
2023-05-12T13:00:05.869Z,24.67
2023-05-12T13:02:34.684Z,25.88
2023-05-12T13:05:06.166Z,25.48
2023-05-12T13:07:33.623Z,26.65
2023-05-12T13:10:00.618Z,28.33
2023-05-12T13:12:29.420Z,26.58
2023-05-12T13:14:57.100Z,27.55
2023-05-12T13:17:25.195Z,27.45
2023-05-12T13:19:53.239Z,27.70
2023-05-12T13:22:20.643Z,27.63
2023-05-12T13:24:48.278Z,27.48
2023-05-12T13:27:15.436Z,27.45
2023-05-12T13:29:42.419Z,26.90
2023-05-12T13:32:09.515Z,26.77
2023-05-12T13:34:37.460Z,24.65
2023-05-12T13:37:04.539Z,23.27
2023-05-12T13:39:32.154Z,23.80
2023-05-12T13:41:59.957Z,23.90
2023-05-12T13:44:27.648Z,23.15
2023-05-12T13:46:54.748Z,21.95
2023-05-12T13:49:22.239Z,21.98
2023-05-12T13:51:49.268Z,21.63
2023-05-12T13:54:16.305Z,21.45
2023-05-12T13:56:43.514Z,21.58
2023-05-12T13:59:10.518Z,21.17
2023-05-12T14:01:37.698Z,21.42
2023-05-12T14:04:04.752Z,21.65
2023-05-12T14:06:32.768Z,22.08
2023-05-12T14:08:59.872Z,22.85
2023-05-12T14:11:27.433Z,22.55
2023-05-12T14:13:54.475Z,23.75
2023-05-12T14:16:21.524Z,24.80
2023-05-12T14:18:48.626Z,23.65
2023-05-12T14:21:16.794Z,23.35
2023-05-12T14:23:44.144Z,23.27
2023-05-12T14:26:11.303Z,23.95
2023-05-12T14:28:39.028Z,23.67
2023-05-12T14:31:06.230Z,23.27
2023-05-12T14:33:33.435Z,23.73
2023-05-12T14:36:07.319Z,23.00
2023-05-12T14:38:34.849Z,22.70
2023-05-12T14:41:02.226Z,22.70
2023-05-12T14:43:29.574Z,22.55
2023-05-12T14:45:56.666Z,22.63
2023-05-12T14:48:26.275Z,23.33
2023-05-12T14:50:54.036Z,23.20
2023-05-12T14:53:21.517Z,23.52
2023-05-12T14:55:52.207Z,22.17
2023-05-12T14:58:24.516Z,22.42
2023-05-12T15:00:52.025Z,22.10
2023-05-12T15:03:21.092Z,21.35
2023-05-12T15:06:04.875Z,21.48
2023-05-12T15:08:33.744Z,21.08
2023-05-12T15:11:00.764Z,21.30
2023-05-12T15:13:27.785Z,21.05
2023-05-12T15:15:56.614Z,20.88
2023-05-12T15:18:24.153Z,20.92
2023-05-12T15:20:51.669Z,20.42
2023-05-12T15:23:18.817Z,20.48
2023-05-12T15:25:45.859Z,21.15
2023-05-12T15:28:13.401Z,21.02
2023-05-12T15:30:40.681Z,21.10
2023-05-12T15:33:07.788Z,21.17
2023-05-12T15:35:34.927Z,21.10
2023-05-12T15:38:01.998Z,21.70
2023-05-12T15:40:31.029Z,22.10
2023-05-12T15:42:58.876Z,22.17
2023-05-12T15:45:27.614Z,22.50
2023-05-12T15:47:57.228Z,23.27
2023-05-12T15:50:24.747Z,23.15
2023-05-12T15:52:52.167Z,23.88
2023-05-12T15:55:19.639Z,24.08
2023-05-12T15:57:46.922Z,25.40
2023-05-12T16:00:14.798Z,25.02
2023-05-12T16:02:41.905Z,24.83
2023-05-12T16:05:10.197Z,24.67
2023-05-12T16:07:37.328Z,24.45
2023-05-12T16:10:04.973Z,23.70
2023-05-12T16:12:32.034Z,23.40
2023-05-12T16:14:59.684Z,22.23
2023-05-12T16:17:28.533Z,20.83
2023-05-12T16:19:57.062Z,20.48
2023-05-12T16:22:24.272Z,19.70
2023-05-12T16:24:51.378Z,20.23
2023-05-12T16:27:18.417Z,19.73
2023-05-12T16:29:46.028Z,20.00
2023-05-12T16:32:13.227Z,19.98
2023-05-12T16:34:40.664Z,20.35
2023-05-12T16:37:07.747Z,20.17
2023-05-12T16:39:36.055Z,20.38
2023-05-12T16:42:03.445Z,19.98
2023-05-12T16:44:30.621Z,19.75
2023-05-12T16:46:57.619Z,19.10
2023-05-12T16:49:25.082Z,19.52
2023-05-12T16:51:52.419Z,19.50
2023-05-12T16:54:19.406Z,19.40
2023-05-12T16:56:47.393Z,19.75
2023-05-12T16:59:14.983Z,19.20
2023-05-12T17:01:42.008Z,18.05
2023-05-12T17:04:11.928Z,17.42
2023-05-12T17:06:39.180Z,17.67
2023-05-12T17:09:06.196Z,17.95
2023-05-12T17:11:33.189Z,17.75
2023-05-12T17:14:01.700Z,18.13
2023-05-12T17:16:28.876Z,18.02
2023-05-12T17:21:28.319Z,18.52
2023-05-12T17:23:55.384Z,17.95
2023-05-12T17:26:22.662Z,18.25
2023-05-12T17:28:49.675Z,18.30
2023-05-12T17:31:16.669Z,18.08
2023-05-12T17:33:44.657Z,17.25
2023-05-12T17:36:13.373Z,17.33
2023-05-12T17:38:41.266Z,17.60
2023-05-12T17:41:09.482Z,17.33
2023-05-12T17:43:36.507Z,17.30
2023-05-12T17:46:04.930Z,17.20
2023-05-12T17:48:33.469Z,17.55
2023-05-12T17:51:01.496Z,17.88
2023-05-12T17:53:28.636Z,17.58
2023-05-12T17:55:55.621Z,17.95
2023-05-12T17:58:22.781Z,17.00
2023-05-12T18:00:51.558Z,17.67
2023-05-12T18:03:23.969Z,17.08
2023-05-12T18:05:54.355Z,17.30
2023-05-12T18:08:21.936Z,16.95
2023-05-12T18:10:49.480Z,17.80
2023-05-12T18:13:16.589Z,18.10
2023-05-12T18:15:43.954Z,17.92
2023-05-12T18:18:11.085Z,17.88
2023-05-12T18:20:38.570Z,17.58
2023-05-12T18:23:08.110Z,17.77
2023-05-12T18:25:36.452Z,17.65
2023-05-12T18:28:03.487Z,17.33
2023-05-12T18:30:30.558Z,17.42
2023-05-12T18:32:57.613Z,17.80
2023-05-12T18:35:28.129Z,17.67
2023-05-12T18:37:55.061Z,17.45
2023-05-12T18:40:22.097Z,17.65
2023-05-12T18:42:49.130Z,18.02
2023-05-12T18:45:16.919Z,17.63
2023-05-12T18:47:44.092Z,17.67
2023-05-12T18:50:11.653Z,17.98
2023-05-12T18:52:38.617Z,17.88
2023-05-12T18:55:06.107Z,18.48
2023-05-12T18:57:33.358Z,19.08
2023-05-12T19:00:01.169Z,18.95
2023-05-12T19:02:28.286Z,18.80
2023-05-12T19:04:56.052Z,19.17
2023-05-12T19:07:24.161Z,19.52
2023-05-12T19:09:51.283Z,19.13
2023-05-12T19:12:18.504Z,19.15
2023-05-12T19:14:45.599Z,19.60
2023-05-12T19:17:14.952Z,19.58
2023-05-12T19:19:42.050Z,20.48
2023-05-12T19:22:09.446Z,21.25
2023-05-12T19:24:38.080Z,21.67
2023-05-12T19:27:05.188Z,21.73
2023-05-12T19:29:33.229Z,21.95
2023-05-12T19:32:00.293Z,21.23
2023-05-12T19:34:29.670Z,21.70
2023-05-12T19:36:58.396Z,21.85
2023-05-12T19:39:25.388Z,22.40
2023-05-12T19:41:52.446Z,23.15
2023-05-12T19:44:20.098Z,21.52
2023-05-12T19:46:53.659Z,21.77
2023-05-12T19:49:20.765Z,21.63
2023-05-12T19:51:48.843Z,21.73
2023-05-12T19:54:16.484Z,21.90
2023-05-12T19:56:43.505Z,22.17
2023-05-12T19:59:10.580Z,22.35
2023-05-12T20:01:37.636Z,21.73
2023-05-12T20:04:04.808Z,22.77
2023-05-12T20:06:32.154Z,22.63
2023-05-12T20:08:59.152Z,22.65
2023-05-12T20:11:26.082Z,22.80
2023-05-12T20:13:53.159Z,22.88
2023-05-12T20:16:20.233Z,22.70
2023-05-12T20:18:47.274Z,22.83
2023-05-12T20:21:14.304Z,22.60
2023-05-12T20:23:41.797Z,22.50
2023-05-12T20:26:10.296Z,22.73
2023-05-12T20:28:37.369Z,22.55
2023-05-12T20:31:04.326Z,22.48
2023-05-12T20:33:32.447Z,22.80
2023-05-12T20:35:59.421Z,22.65
2023-05-12T20:38:26.899Z,22.88
2023-05-12T20:40:53.929Z,22.58
2023-05-12T20:43:21.501Z,23.42
2023-05-12T20:45:48.526Z,23.30
2023-05-12T20:48:15.590Z,22.70
2023-05-12T20:50:43.270Z,23.27
2023-05-12T20:53:10.252Z,23.13
2023-05-12T20:55:37.242Z,22.88
2023-05-12T20:58:04.304Z,24.27
2023-05-12T21:00:31.400Z,24.00
2023-05-12T21:02:59.184Z,23.98
2023-05-12T21:05:26.637Z,24.02
2023-05-12T21:07:53.775Z,24.15
2023-05-12T21:10:21.691Z,23.92
2023-05-12T21:12:49.074Z,23.85
2023-05-12T21:15:16.289Z,23.20
2023-05-12T21:17:43.720Z,23.20
2023-05-12T21:20:12.334Z,23.63
2023-05-12T21:22:40.860Z,23.25
2023-05-12T21:25:08.614Z,23.20
2023-05-12T21:27:40.928Z,23.30
2023-05-12T21:30:09.282Z,23.30
2023-05-12T21:32:36.833Z,22.95
2023-05-12T21:35:04.040Z,22.20
2023-05-12T21:37:31.105Z,22.30
2023-05-12T21:39:58.103Z,22.00
2023-05-12T21:42:25.141Z,22.13
2023-05-12T21:44:52.580Z,21.77
2023-05-12T21:47:19.656Z,22.35
2023-05-12T21:49:46.651Z,21.70
2023-05-12T21:52:13.817Z,21.38
2023-05-12T21:54:40.740Z,21.30
2023-05-12T21:57:10.206Z,20.75
2023-05-12T21:59:37.199Z,21.15
2023-05-12T22:02:04.817Z,20.63
2023-05-12T22:04:31.833Z,21.13
2023-05-12T22:06:59.036Z,20.85
2023-05-12T22:09:26.221Z,21.00
2023-05-12T22:11:53.498Z,21.17
2023-05-12T22:14:21.442Z,21.05
2023-05-12T22:16:48.504Z,20.88
2023-05-12T22:19:17.125Z,20.52
2023-05-12T22:21:44.670Z,20.55
2023-05-12T22:24:11.716Z,21.17
2023-05-12T22:26:39.075Z,20.95
2023-05-12T22:29:06.257Z,20.67
2023-05-12T22:31:33.301Z,20.55
2023-05-12T22:34:00.298Z,20.85
2023-05-12T22:36:27.286Z,20.55
2023-05-12T22:38:55.712Z,20.70
2023-05-12T22:41:22.711Z,20.63
2023-05-12T22:43:49.651Z,20.90
2023-05-12T22:46:16.705Z,20.92
2023-05-12T22:48:44.126Z,20.65
2023-05-12T22:51:11.200Z,20.70
2023-05-12T22:53:41.499Z,20.38
2023-05-12T22:56:08.765Z,20.48
2023-05-12T22:58:35.887Z,20.00
2023-05-12T23:01:02.974Z,20.17
2023-05-12T23:03:30.212Z,20.05
2023-05-12T23:05:57.409Z,19.92
2023-05-12T23:08:24.537Z,20.08
2023-05-12T23:10:51.471Z,20.02
2023-05-12T23:13:18.423Z,19.40
2023-05-12T23:15:45.356Z,19.42
2023-05-12T23:18:12.301Z,19.52
2023-05-12T23:20:39.251Z,19.70
2023-05-12T23:23:07.113Z,19.27
2023-05-12T23:25:35.262Z,19.80
2023-05-12T23:28:03.254Z,19.05
2023-05-12T23:30:32.190Z,19.40
2023-05-12T23:32:59.288Z,19.63
2023-05-12T23:35:28.841Z,19.77
2023-05-12T23:37:58.388Z,19.73
2023-05-12T23:40:26.414Z,19.23
2023-05-12T23:42:54.539Z,19.33
2023-05-12T23:45:22.615Z,19.02
2023-05-12T23:47:51.194Z,19.17
2023-05-12T23:50:18.646Z,19.92
2023-05-12T23:52:46.919Z,19.52
2023-05-12T23:55:13.885Z,19.88
2023-05-12T23:57:40.841Z,19.80
